Cheyenne, WY

4:12 PM MDT on June 26, 2017 (GMT -0600)
MUP226 | | Change Station

Elev 6733 ft 41.08 °N, 105.04 °W | Updated 54 days ago

Clear
Clear
30.0 °F
Feels Like 18 °F
N
18.0
Wind Variable Wind from WNW
Gusts 21.0 mph

Today
High -- | Low -- °F
--% Chance of Precip.
Yesterday
High -- | Low -- °F
Precip. -- in
Pressure 29.96 in
Visibility 10.0 miles
Clouds Clear
Windchill 18 °F
Dew Point Not available.
Humidity Not available.
Rainfall in
Snow Depth Not available.
5:28 AM 8:35 PM
Waxing Crescent, 11% visible
METAR KCYS 262153Z 10009KT 10SM CLR 28/04 A3021 RMK AO2 SLP145 T02780044
Pressure 29.96 in
Visibility 10.0 miles
Clouds Clear
Windchill 18 °F
Dew Point Not available.
Humidity Not available.
Rainfall in
Snow Depth Not available.
5:28 AM 8:35 PM
Waxing Crescent, 11% visible
METAR KCYS 262153Z 10009KT 10SM CLR 28/04 A3021 RMK AO2 SLP145 T02780044

Get Severe Weather Alerts

Thanks for signing up!

Be on the lookout for a verification email in your inbox.

You'll start receiving the daily forecast at 6 AM.

×

10-Day Weather Forecast

Almanac

Astronomy

Jun. 26, 2017 Rise Set
Actual Time
Civil Twilight
Nautical Twilight
Astronomical Twilight
Moon
Length of Visible Light
Length of Day
Tomorrow will be .
, % of the Moon is Illuminated

Today's Extremes

State Highs State Lows

Community

WunderPhotos

Category 6

Welcome to Category 6. This is the collective home for Weather Underground's featured writeups by Dr. Jeff Masters (right), Bob Henson (left), Chris Burt, and other regular contributors.

Nearby

Air Quality

  Air Quality AQ Index Pollutant
Not available.

Snow Depth

Station Depth Elevation

Earthquake Activity

City Distance Mag. Time & Date
Minimum magnitude displayed is 2.5.

Coastal Water Temperatures

Place Temperature

Stations

Nearby Weather Stations

Station Location Temp. Windchill Dew Point Humidity Wind Precip. Elev Updated Type
                   

Watches & Warnings

There are currently no watches in effect.